Time;durP1;ratioP1;P1;durP2;ratioP2;P2;SDS_P1;SDS_P2;PMS_P1;PMS_P2;Temp;Humidity;BMP_temperature;BMP_pressure;BME280_temperature;BME280_humidity;BME280_pressure;Samples;Min_cycle;Max_cycle;Signal;HPM_P1;HPM_P2
2022/12/11 00:01:55;;;;;;;57.83;18.90;;;;;;;;;;5017168;28;20487;-68
2022/12/11 00:04:21;;;;;;;59.50;19.93;;;;;;;;;;5028311;28;20240;-69
2022/12/11 00:06:49;;;;;;;65.13;21.07;;;;;;;;;;5027919;28;20269;-68
2022/12/11 00:09:15;;;;;;;71.43;22.93;;;;;;;;;;5019060;28;20213;-69
2022/12/11 00:11:41;;;;;;;68.13;20.47;;;;;;;;;;5015803;28;20213;-69
2022/12/11 00:14:06;;;;;;;64.13;21.80;;;;;;;;;;5012583;28;20248;-69
2022/12/11 00:16:31;;;;;;;62.27;19.33;;;;;;;;;;5014411;28;20206;-69
2022/12/11 00:18:57;;;;;;;62.57;21.50;;;;;;;;;;5016321;28;20199;-68
2022/12/11 00:21:22;;;;;;;66.43;20.90;;;;;;;;;;5019636;28;20604;-68
2022/12/11 00:23:47;;;;;;;68.63;21.67;;;;;;;;;;5015825;28;20332;-68
2022/12/11 00:26:14;;;;;;;58.53;18.77;;;;;;;;;;5014256;28;20212;-68
2022/12/11 00:28:40;;;;;;;57.77;18.73;;;;;;;;;;5022897;28;20187;-68
2022/12/11 00:31:07;;;;;;;57.63;18.53;;;;;;;;;;5026270;28;20221;-69
2022/12/11 00:33:33;;;;;;;54.70;18.20;;;;;;;;;;5024357;28;20196;-69
2022/12/11 00:35:58;;;;;;;48.90;16.47;;;;;;;;;;5029801;28;20190;-69
2022/12/11 00:38:24;;;;;;;51.73;17.63;;;;;;;;;;5024636;28;20191;-69
2022/12/11 00:40:49;;;;;;;50.70;16.13;;;;;;;;;;5023094;28;20538;-70
2022/12/11 00:43:15;;;;;;;45.00;16.57;;;;;;;;;;5022248;28;20212;-69
2022/12/11 00:45:42;;;;;;;53.77;17.53;;;;;;;;;;5018087;28;20638;-68
2022/12/11 00:48:09;;;;;;;51.47;17.70;;;;;;;;;;5027152;28;20191;-69
2022/12/11 00:50:35;;;;;;;50.77;18.20;;;;;;;;;;5026395;28;20206;-69
2022/12/11 00:53:02;;;;;;;53.63;18.07;;;;;;;;;;5018263;28;20194;-69
2022/12/11 00:55:28;;;;;;;55.40;18.67;;;;;;;;;;5027756;28;20604;-69
2022/12/11 00:57:54;;;;;;;49.77;18.30;;;;;;;;;;5028215;28;20197;-68
2022/12/11 01:00:21;;;;;;;54.07;17.93;;;;;;;;;;5024256;28;20578;-68
2022/12/11 01:02:47;;;;;;;53.10;18.23;;;;;;;;;;5022198;28;20225;-69
2022/12/11 01:05:13;;;;;;;56.63;20.23;;;;;;;;;;5026615;28;20201;-69
2022/12/11 01:07:38;;;;;;;55.63;19.17;;;;;;;;;;5020621;28;20182;-68
2022/12/11 01:12:53;;;;;;;54.70;18.63;;;;;;;;;;5027745;28;20212;-69
2022/12/11 01:15:19;;;;;;;54.20;19.00;;;;;;;;;;5024575;28;20256;-68
2022/12/11 01:17:45;;;;;;;51.10;18.87;;;;;;;;;;5024381;28;20621;-69
2022/12/11 01:20:10;;;;;;;59.20;20.03;;;;;;;;;;5026196;28;20272;-69
2022/12/11 01:22:36;;;;;;;62.27;20.30;;;;;;;;;;5022029;28;20186;-68
2022/12/11 01:25:02;;;;;;;60.57;20.70;;;;;;;;;;5025201;28;20545;-69
2022/12/11 01:27:27;;;;;;;50.73;19.20;;;;;;;;;;5017284;28;20190;-69
2022/12/11 01:29:52;;;;;;;62.93;20.40;;;;;;;;;;5031849;28;20213;-68
2022/12/11 01:32:18;;;;;;;58.40;19.80;;;;;;;;;;5027517;28;20220;-70
2022/12/11 01:34:43;;;;;;;66.77;20.93;;;;;;;;;;5022827;28;20273;-69
2022/12/11 01:37:08;;;;;;;68.40;19.07;;;;;;;;;;5021278;28;20643;-68
2022/12/11 01:39:35;;;;;;;59.07;20.67;;;;;;;;;;5014559;28;20182;-68
2022/12/11 01:42:00;;;;;;;54.90;19.27;;;;;;;;;;5027134;28;20190;-69
2022/12/11 01:44:26;;;;;;;61.43;18.80;;;;;;;;;;5020202;28;20205;-69
2022/12/11 01:46:51;;;;;;;59.87;19.80;;;;;;;;;;5026341;28;20277;-69
2022/12/11 01:49:19;;;;;;;58.90;19.70;;;;;;;;;;5026410;28;20190;-69
2022/12/11 01:51:52;;;;;;;62.97;21.10;;;;;;;;;;5026635;28;20553;-69
2022/12/11 01:54:20;;;;;;;61.87;20.50;;;;;;;;;;5019205;28;20614;-69
2022/12/11 01:56:48;;;;;;;61.20;20.83;;;;;;;;;;5025894;28;20190;-69
2022/12/11 01:59:17;;;;;;;53.37;19.07;;;;;;;;;;5016184;28;20194;-69
2022/12/11 02:01:57;;;;;;;64.50;21.23;;;;;;;;;;5022006;28;20701;-69
2022/12/11 02:04:23;;;;;;;65.33;20.73;;;;;;;;;;5024039;28;20188;-69
2022/12/11 02:06:51;;;;;;;59.07;18.40;;;;;;;;;;5023813;28;20186;-69
2022/12/11 02:09:24;;;;;;;52.43;17.93;;;;;;;;;;5026559;28;20185;-69
2022/12/11 02:12:01;;;;;;;57.87;19.00;;;;;;;;;;5025301;28;20211;-68
2022/12/11 02:14:34;;;;;;;56.87;19.23;;;;;;;;;;5022171;28;20324;-68
2022/12/11 02:17:07;;;;;;;58.00;20.80;;;;;;;;;;5026195;28;20645;-69
2022/12/11 02:19:56;;;;;;;60.50;19.70;;;;;;;;;;5025239;28;20717;-69
2022/12/11 02:22:42;;;;;;;70.97;22.37;;;;;;;;;;5026145;28;20190;-69
2022/12/11 02:25:16;;;;;;;60.23;19.67;;;;;;;;;;5022570;28;20189;-69
2022/12/11 02:27:55;;;;;;;56.10;19.70;;;;;;;;;;5033617;28;20182;-69
2022/12/11 02:30:21;;;;;;;74.63;20.67;;;;;;;;;;5022116;28;20233;-69
2022/12/11 02:32:53;;;;;;;63.97;21.00;;;;;;;;;;5026236;28;20257;-68
2022/12/11 02:35:24;;;;;;;59.30;20.37;;;;;;;;;;5022869;28;20658;-69
2022/12/11 02:37:58;;;;;;;75.17;21.00;;;;;;;;;;5024046;28;20193;-68
2022/12/11 02:40:26;;;;;;;57.03;19.47;;;;;;;;;;5011769;28;20195;-69
2022/12/11 02:42:54;;;;;;;67.90;20.63;;;;;;;;;;5029906;28;20186;-69
2022/12/11 02:45:21;;;;;;;70.93;21.97;;;;;;;;;;5021712;28;20752;-69
2022/12/11 02:47:48;;;;;;;72.63;22.17;;;;;;;;;;5027291;28;20213;-69
2022/12/11 02:50:18;;;;;;;74.97;21.87;;;;;;;;;;5027063;28;20194;-69
2022/12/11 02:52:45;;;;;;;59.87;18.53;;;;;;;;;;5029970;28;20197;-69
2022/12/11 02:55:14;;;;;;;69.57;21.77;;;;;;;;;;5021999;28;20285;-69
2022/12/11 02:57:46;;;;;;;73.70;23.30;;;;;;;;;;5027170;28;20260;-69
2022/12/11 03:00:12;;;;;;;78.77;22.30;;;;;;;;;;5018182;28;20206;-68
2022/12/11 03:02:39;;;;;;;72.23;21.33;;;;;;;;;;5026617;28;20229;-68
2022/12/11 03:05:05;;;;;;;72.50;21.50;;;;;;;;;;5031419;28;20273;-69
2022/12/11 03:07:36;;;;;;;67.00;20.33;;;;;;;;;;5025090;28;20274;-68
2022/12/11 03:10:04;;;;;;;74.83;21.47;;;;;;;;;;5026467;28;20233;-68
2022/12/11 03:12:33;;;;;;;74.50;22.00;;;;;;;;;;5030663;28;20405;-68
2022/12/11 03:15:01;;;;;;;80.33;21.17;;;;;;;;;;5018702;28;20190;-68
2022/12/11 03:17:43;;;;;;;85.37;24.07;;;;;;;;;;5032838;28;20190;-68
2022/12/11 03:20:18;;;;;;;74.23;22.30;;;;;;;;;;5027804;28;20181;-68
2022/12/11 03:23:11;;;;;;;68.10;20.83;;;;;;;;;;5024485;28;20198;-69
2022/12/11 03:26:04;;;;;;;77.43;22.77;;;;;;;;;;5029007;28;20174;-69
2022/12/11 03:28:54;;;;;;;70.10;20.53;;;;;;;;;;5026588;28;20196;-68
2022/12/11 03:31:29;;;;;;;74.43;21.23;;;;;;;;;;5022717;28;20280;-69
2022/12/11 03:33:59;;;;;;;81.00;22.83;;;;;;;;;;5028830;28;20351;-69
2022/12/11 03:36:32;;;;;;;85.30;22.90;;;;;;;;;;5019191;28;20264;-69
2022/12/11 03:39:06;;;;;;;63.90;20.23;;;;;;;;;;5037163;28;20224;-69
2022/12/11 03:41:34;;;;;;;75.83;21.87;;;;;;;;;;5019304;28;20182;-69
2022/12/11 03:44:00;;;;;;;80.97;22.53;;;;;;;;;;5022021;28;20191;-68
2022/12/11 03:46:31;;;;;;;80.37;22.83;;;;;;;;;;5024915;28;20185;-69
2022/12/11 03:49:02;;;;;;;71.57;21.60;;;;;;;;;;5017419;28;20194;-69
2022/12/11 03:51:31;;;;;;;78.00;23.93;;;;;;;;;;5029406;28;20217;-69
2022/12/11 03:53:57;;;;;;;70.70;22.47;;;;;;;;;;5027047;28;20186;-68
2022/12/11 03:56:25;;;;;;;72.63;21.60;;;;;;;;;;5027079;28;20215;-69
2022/12/11 03:58:51;;;;;;;74.87;22.50;;;;;;;;;;5030313;28;20182;-69
2022/12/11 04:01:16;;;;;;;80.63;22.20;;;;;;;;;;5027874;28;20567;-69
2022/12/11 04:03:41;;;;;;;74.27;24.00;;;;;;;;;;5029677;28;20185;-69
2022/12/11 04:06:07;;;;;;;80.23;23.13;;;;;;;;;;5015680;28;20197;-69
2022/12/11 04:08:32;;;;;;;76.23;22.70;;;;;;;;;;5028417;28;20190;-68
2022/12/11 04:13:41;;;;;;;70.83;21.90;;;;;;;;;;5029567;28;20235;-68
2022/12/11 04:16:07;;;;;;;84.87;24.43;;;;;;;;;;5029204;28;20208;-69
2022/12/11 04:24:15;;;;;;;75.47;21.77;;;;;;;;;;5013266;28;20196;-69
2022/12/11 04:26:45;;;;;;;74.77;21.30;;;;;;;;;;5041082;28;20704;-68
2022/12/11 04:29:11;;;;;;;75.80;21.93;;;;;;;;;;5025252;28;20186;-69
2022/12/11 04:31:36;;;;;;;80.07;22.73;;;;;;;;;;5022672;28;20739;-69
2022/12/11 04:34:02;;;;;;;71.87;21.67;;;;;;;;;;5026110;28;20198;-69
2022/12/11 04:36:27;;;;;;;76.57;22.43;;;;;;;;;;5026527;28;20236;-69
2022/12/11 04:38:52;;;;;;;82.53;23.07;;;;;;;;;;5022747;28;20240;-69
2022/12/11 04:41:18;;;;;;;76.13;21.67;;;;;;;;;;5021490;28;20178;-69
2022/12/11 04:43:44;;;;;;;77.17;21.97;;;;;;;;;;5027247;28;20178;-69
2022/12/11 04:46:23;;;;;;;74.73;22.70;;;;;;;;;;5020011;28;20213;-69
2022/12/11 04:48:50;;;;;;;80.20;23.03;;;;;;;;;;5022204;28;20533;-69
2022/12/11 04:51:16;;;;;;;70.40;21.17;;;;;;;;;;5015380;28;20210;-69
2022/12/11 04:53:41;;;;;;;80.17;23.40;;;;;;;;;;5022457;28;20926;-69
2022/12/11 04:56:10;;;;;;;84.57;22.83;;;;;;;;;;5020569;28;20181;-69
2022/12/11 04:58:36;;;;;;;70.53;22.00;;;;;;;;;;5024527;28;20532;-69
2022/12/11 05:01:13;;;;;;;69.30;21.13;;;;;;;;;;5024011;28;20241;-69
2022/12/11 05:03:39;;;;;;;77.03;21.00;;;;;;;;;;5027564;28;20715;-69
2022/12/11 05:06:05;;;;;;;74.17;20.70;;;;;;;;;;5025897;28;20186;-68
2022/12/11 05:08:34;;;;;;;71.83;21.37;;;;;;;;;;5021598;28;20186;-68
2022/12/11 05:11:05;;;;;;;63.60;19.40;;;;;;;;;;5017801;28;20688;-68
2022/12/11 05:13:30;;;;;;;68.93;20.80;;;;;;;;;;5031276;28;20679;-69
2022/12/11 05:15:56;;;;;;;73.90;23.10;;;;;;;;;;5019184;28;20178;-69
2022/12/11 05:18:22;;;;;;;77.70;22.50;;;;;;;;;;5025221;28;20285;-69
2022/12/11 05:20:55;;;;;;;80.60;22.43;;;;;;;;;;5033782;28;20210;-69
2022/12/11 05:23:21;;;;;;;75.67;21.17;;;;;;;;;;5023698;28;20224;-69
2022/12/11 05:25:57;;;;;;;75.40;21.50;;;;;;;;;;5026400;28;20201;-69
2022/12/11 05:28:24;;;;;;;83.50;22.53;;;;;;;;;;5022348;28;20204;-69
2022/12/11 05:30:57;;;;;;;81.20;21.87;;;;;;;;;;5032486;28;20209;-69
2022/12/11 05:33:23;;;;;;;79.70;22.50;;;;;;;;;;5022930;28;20186;-69
2022/12/11 05:35:48;;;;;;;74.70;22.73;;;;;;;;;;5026155;28;20589;-69
2022/12/11 05:38:14;;;;;;;83.03;22.90;;;;;;;;;;5025424;28;20638;-69
2022/12/11 05:40:39;;;;;;;76.50;22.90;;;;;;;;;;5022614;28;20191;-69
2022/12/11 05:43:05;;;;;;;78.47;22.63;;;;;;;;;;5027832;28;20692;-70
2022/12/11 05:45:30;;;;;;;71.30;20.43;;;;;;;;;;5017970;28;20190;-69
2022/12/11 05:47:55;;;;;;;68.50;21.00;;;;;;;;;;5025469;28;20201;-68
2022/12/11 05:50:21;;;;;;;70.43;20.17;;;;;;;;;;5026695;28;20249;-68
2022/12/11 05:52:46;;;;;;;69.50;22.03;;;;;;;;;;5027371;28;20261;-69
2022/12/11 05:55:12;;;;;;;81.30;22.53;;;;;;;;;;5027332;28;20273;-69
2022/12/11 05:57:37;;;;;;;68.73;21.90;;;;;;;;;;5022653;28;20201;-69
2022/12/11 06:00:04;;;;;;;69.60;20.93;;;;;;;;;;5026330;28;20198;-69
2022/12/11 06:02:30;;;;;;;64.03;20.17;;;;;;;;;;5019203;28;20333;-68
2022/12/11 06:04:55;;;;;;;72.73;22.27;;;;;;;;;;5026510;28;20276;-69
2022/12/11 06:07:20;;;;;;;79.20;21.53;;;;;;;;;;5026012;28;20186;-68
2022/12/11 06:09:46;;;;;;;61.93;21.50;;;;;;;;;;5035408;28;20364;-68
2022/12/11 06:12:11;;;;;;;64.27;20.70;;;;;;;;;;5023554;28;20208;-69
2022/12/11 06:14:36;;;;;;;66.53;20.53;;;;;;;;;;5027715;28;20186;-68
2022/12/11 06:17:02;;;;;;;67.80;21.47;;;;;;;;;;5019265;28;20211;-69
2022/12/11 06:19:27;;;;;;;69.67;20.50;;;;;;;;;;5026377;28;20307;-68
2022/12/11 06:21:52;;;;;;;65.90;20.53;;;;;;;;;;5020978;28;20197;-68
2022/12/11 06:24:18;;;;;;;80.20;23.17;;;;;;;;;;5022816;28;20175;-69
2022/12/11 06:26:43;;;;;;;59.27;18.77;;;;;;;;;;5026667;28;20178;-68
2022/12/11 06:29:08;;;;;;;65.70;20.73;;;;;;;;;;5020876;28;20186;-69
2022/12/11 06:31:34;;;;;;;71.43;20.40;;;;;;;;;;5022536;28;20690;-68
2022/12/11 06:33:59;;;;;;;69.13;21.10;;;;;;;;;;5009003;28;20196;-68
2022/12/11 06:36:24;;;;;;;69.67;20.63;;;;;;;;;;5015098;28;20192;-69
2022/12/11 06:38:50;;;;;;;60.93;20.10;;;;;;;;;;5017244;28;20198;-68
2022/12/11 06:41:16;;;;;;;76.70;21.97;;;;;;;;;;5021972;28;20220;-68
2022/12/11 06:43:41;;;;;;;68.70;20.30;;;;;;;;;;5023482;28;20174;-68
2022/12/11 06:46:10;;;;;;;67.30;21.30;;;;;;;;;;5028353;28;20187;-68
2022/12/11 06:48:35;;;;;;;69.77;19.63;;;;;;;;;;5031495;28;20175;-68
2022/12/11 06:51:05;;;;;;;70.00;21.37;;;;;;;;;;5022586;28;20233;-68
2022/12/11 06:53:31;;;;;;;63.37;18.83;;;;;;;;;;5018850;28;20277;-68
2022/12/11 06:56:04;;;;;;;71.23;20.77;;;;;;;;;;5014951;28;20253;-68
2022/12/11 06:58:29;;;;;;;64.20;19.67;;;;;;;;;;5025740;28;20213;-68
2022/12/11 07:00:54;;;;;;;72.67;20.53;;;;;;;;;;5024320;28;20586;-68
2022/12/11 07:03:20;;;;;;;68.00;20.33;;;;;;;;;;5018997;28;20233;-70
2022/12/11 07:05:45;;;;;;;70.80;20.93;;;;;;;;;;5014966;28;20308;-68
2022/12/11 07:08:10;;;;;;;63.90;20.17;;;;;;;;;;5009904;28;20262;-68
2022/12/11 07:10:36;;;;;;;75.33;20.83;;;;;;;;;;5036056;28;20688;-68
2022/12/11 07:13:01;;;;;;;71.83;20.90;;;;;;;;;;5023759;28;20186;-69
2022/12/11 07:15:26;;;;;;;60.60;20.40;;;;;;;;;;5021466;28;20187;-69
2022/12/11 07:17:52;;;;;;;64.47;20.57;;;;;;;;;;5022073;28;20223;-68
2022/12/11 07:20:17;;;;;;;69.37;20.23;;;;;;;;;;5024025;28;20269;-68
2022/12/11 07:22:42;;;;;;;76.67;21.80;;;;;;;;;;5018314;28;20178;-69
2022/12/11 07:25:08;;;;;;;63.23;20.73;;;;;;;;;;5018276;28;20209;-69
2022/12/11 07:27:33;;;;;;;63.87;20.40;;;;;;;;;;5021375;28;20189;-68
2022/12/11 07:29:59;;;;;;;61.40;20.33;;;;;;;;;;5029037;28;20417;-68
2022/12/11 07:32:24;;;;;;;66.53;20.30;;;;;;;;;;5023367;28;20187;-68
2022/12/11 07:34:50;;;;;;;63.37;19.03;;;;;;;;;;5023592;28;20492;-69
2022/12/11 07:37:15;;;;;;;58.30;18.07;;;;;;;;;;5017077;28;20654;-68
2022/12/11 07:39:40;;;;;;;69.63;20.20;;;;;;;;;;5021840;28;20179;-68
2022/12/11 07:42:06;;;;;;;71.97;19.07;;;;;;;;;;5028845;28;20178;-68
2022/12/11 07:44:31;;;;;;;68.00;20.33;;;;;;;;;;5030813;28;20174;-68
2022/12/11 07:46:57;;;;;;;57.33;19.40;;;;;;;;;;5024235;28;20247;-68
2022/12/11 07:49:22;;;;;;;64.83;18.83;;;;;;;;;;5027782;28;20278;-68
2022/12/11 07:51:47;;;;;;;53.67;17.23;;;;;;;;;;5026847;28;20209;-68
2022/12/11 07:54:15;;;;;;;67.07;18.47;;;;;;;;;;5026485;28;20257;-68
2022/12/11 07:56:42;;;;;;;58.57;18.87;;;;;;;;;;5015384;28;20194;-68
2022/12/11 07:59:08;;;;;;;71.33;19.77;;;;;;;;;;5012551;28;20648;-68
2022/12/11 08:01:35;;;;;;;58.23;18.77;;;;;;;;;;5009274;28;20232;-68
2022/12/11 08:04:02;;;;;;;60.60;18.57;;;;;;;;;;5014588;28;20187;-68
2022/12/11 08:06:33;;;;;;;61.87;18.67;;;;;;;;;;5028993;28;20183;-68
2022/12/11 08:09:00;;;;;;;64.33;19.13;;;;;;;;;;5028791;28;20182;-68
2022/12/11 08:11:25;;;;;;;58.33;18.87;;;;;;;;;;5013632;28;20317;-68
2022/12/11 08:13:51;;;;;;;57.27;17.70;;;;;;;;;;5015258;28;20258;-68
2022/12/11 08:16:17;;;;;;;63.67;21.10;;;;;;;;;;5014168;28;20186;-68
2022/12/11 08:18:44;;;;;;;50.13;17.60;;;;;;;;;;5018574;28;20186;-69
2022/12/11 08:21:18;;;;;;;60.10;18.20;;;;;;;;;;5012834;28;20701;-68
2022/12/11 08:23:44;;;;;;;59.47;17.03;;;;;;;;;;5016081;28;20331;-68
2022/12/11 08:26:17;;;;;;;56.20;18.37;;;;;;;;;;5010827;28;20214;-68
2022/12/11 08:28:43;;;;;;;57.07;18.23;;;;;;;;;;5021043;28;20461;-68
2022/12/11 08:31:10;;;;;;;61.03;18.83;;;;;;;;;;5016272;28;20742;-68
2022/12/11 08:33:37;;;;;;;60.77;18.50;;;;;;;;;;5014171;28;20186;-68
2022/12/11 08:36:07;;;;;;;46.93;15.87;;;;;;;;;;5013564;28;20187;-68
2022/12/11 08:38:33;;;;;;;55.60;17.50;;;;;;;;;;5017765;28;20193;-68
2022/12/11 08:41:06;;;;;;;60.50;18.50;;;;;;;;;;5026277;28;20189;-68
2022/12/11 08:43:32;;;;;;;55.77;18.03;;;;;;;;;;5018431;28;20205;-68
2022/12/11 08:45:58;;;;;;;52.60;17.77;;;;;;;;;;5014280;28;20244;-68
2022/12/11 08:48:23;;;;;;;58.43;18.77;;;;;;;;;;5012168;28;20186;-68
2022/12/11 08:50:48;;;;;;;60.60;19.30;;;;;;;;;;5009528;28;20206;-68
2022/12/11 08:53:14;;;;;;;58.33;18.17;;;;;;;;;;5013137;28;20197;-68
2022/12/11 08:55:39;;;;;;;63.33;18.73;;;;;;;;;;5018161;28;20186;-68
2022/12/11 08:58:04;;;;;;;51.60;18.17;;;;;;;;;;5013714;28;20277;-68
2022/12/11 09:00:30;;;;;;;59.17;19.10;;;;;;;;;;5015564;28;20260;-68
2022/12/11 09:02:55;;;;;;;62.67;19.80;;;;;;;;;;5016401;28;20237;-68
2022/12/11 09:05:20;;;;;;;63.53;19.00;;;;;;;;;;5011968;28;20554;-68
2022/12/11 09:07:46;;;;;;;59.27;19.47;;;;;;;;;;5013775;28;20309;-68
2022/12/11 09:10:11;;;;;;;57.23;19.47;;;;;;;;;;5015656;28;20233;-68
2022/12/11 09:12:36;;;;;;;51.53;17.73;;;;;;;;;;5014234;28;20206;-68
2022/12/11 09:15:03;;;;;;;64.30;19.43;;;;;;;;;;5011308;28;20182;-68
2022/12/11 09:17:28;;;;;;;60.30;19.30;;;;;;;;;;5009968;28;20634;-69
2022/12/11 09:19:54;;;;;;;60.60;18.33;;;;;;;;;;5015440;28;20185;-68
2022/12/11 09:22:19;;;;;;;60.63;19.13;;;;;;;;;;5025410;28;20613;-68
2022/12/11 09:24:45;;;;;;;52.97;17.33;;;;;;;;;;5016565;28;20650;-68
2022/12/11 09:27:11;;;;;;;57.80;19.63;;;;;;;;;;5013077;28;20626;-68
2022/12/11 09:29:37;;;;;;;56.13;19.00;;;;;;;;;;5012328;28;20194;-68
2022/12/11 09:32:03;;;;;;;60.07;19.33;;;;;;;;;;5010406;28;20733;-68
2022/12/11 09:34:28;;;;;;;49.57;18.30;;;;;;;;;;5024959;28;20289;-68
2022/12/11 09:36:53;;;;;;;58.50;18.93;;;;;;;;;;5016212;28;20583;-68
2022/12/11 09:39:19;;;;;;;58.50;19.13;;;;;;;;;;5022343;28;20192;-68
2022/12/11 09:42:02;;;;;;;60.10;19.27;;;;;;;;;;5023916;28;20228;-68
2022/12/11 09:44:46;;;;;;;53.60;18.47;;;;;;;;;;5016096;28;20193;-68
2022/12/11 09:47:30;;;;;;;61.17;20.40;;;;;;;;;;5021091;28;20228;-69
2022/12/11 09:50:21;;;;;;;61.03;20.23;;;;;;;;;;5020956;28;20174;-69
2022/12/11 09:52:53;;;;;;;58.77;18.87;;;;;;;;;;5023739;28;20285;-68
2022/12/11 09:55:23;;;;;;;57.07;19.60;;;;;;;;;;5019110;28;20245;-68
2022/12/11 09:57:57;;;;;;;59.80;19.17;;;;;;;;;;5020861;28;20638;-68
2022/12/11 10:00:37;;;;;;;61.57;19.63;;;;;;;;;;5014707;28;20695;-67
2022/12/11 10:03:25;;;;;;;53.90;18.00;;;;;;;;;;5017486;28;20361;-68
2022/12/11 10:06:10;;;;;;;55.37;18.60;;;;;;;;;;5012065;28;20196;-68
2022/12/11 10:08:44;;;;;;;61.43;19.60;;;;;;;;;;5011564;28;20642;-68
2022/12/11 10:11:31;;;;;;;53.03;19.50;;;;;;;;;;5011331;28;20198;-68
2022/12/11 10:14:15;;;;;;;58.83;19.93;;;;;;;;;;5012263;28;20649;-68
2022/12/11 10:16:48;;;;;;;52.80;18.30;;;;;;;;;;5017289;28;20185;-68
2022/12/11 10:19:18;;;;;;;56.37;19.37;;;;;;;;;;5009175;28;20269;-67
2022/12/11 10:21:44;;;;;;;52.17;19.50;;;;;;;;;;5010519;28;20198;-68
2022/12/11 10:24:38;;;;;;;59.83;20.10;;;;;;;;;;5009746;28;20187;-68
2022/12/11 10:27:30;;;;;;;62.57;20.80;;;;;;;;;;5018732;28;20622;-68
2022/12/11 10:30:21;;;;;;;58.53;20.60;;;;;;;;;;5018767;28;20248;-69
2022/12/11 10:33:07;;;;;;;63.57;20.57;;;;;;;;;;5009823;28;20257;-68
2022/12/11 10:35:38;;;;;;;59.80;20.33;;;;;;;;;;5010977;28;20189;-67
2022/12/11 10:38:19;;;;;;;52.53;18.73;;;;;;;;;;5012226;28;20179;-68
2022/12/11 10:40:56;;;;;;;57.27;18.53;;;;;;;;;;5013013;28;20227;-68
2022/12/11 10:43:54;;;;;;;47.43;17.90;;;;;;;;;;5011505;28;20182;-68
2022/12/11 10:46:24;;;;;;;56.23;20.30;;;;;;;;;;5011467;28;20554;-68
2022/12/11 10:48:54;;;;;;;53.23;18.67;;;;;;;;;;5010825;28;20178;-68
2022/12/11 10:51:23;;;;;;;56.67;19.47;;;;;;;;;;5014541;28;20218;-68
2022/12/11 10:53:51;;;;;;;58.33;20.07;;;;;;;;;;5016623;28;20186;-67
2022/12/11 10:56:25;;;;;;;48.37;17.97;;;;;;;;;;5012304;28;20218;-67
2022/12/11 10:58:51;;;;;;;64.87;20.63;;;;;;;;;;5013956;28;20252;-67
2022/12/11 11:01:21;;;;;;;56.40;19.80;;;;;;;;;;5014067;28;20214;-68
2022/12/11 11:04:13;;;;;;;65.23;22.07;;;;;;;;;;5023098;28;20610;-68
2022/12/11 11:06:39;;;;;;;58.83;20.10;;;;;;;;;;5025038;28;20190;-69
2022/12/11 11:09:32;;;;;;;57.77;20.43;;;;;;;;;;5013600;28;20308;-68
2022/12/11 11:11:58;;;;;;;57.50;21.27;;;;;;;;;;5015208;28;20300;-68
2022/12/11 11:14:23;;;;;;;56.80;19.93;;;;;;;;;;5013167;28;20606;-68
2022/12/11 11:16:51;;;;;;;53.03;19.90;;;;;;;;;;5018814;28;20548;-68
2022/12/11 11:19:23;;;;;;;54.43;17.97;;;;;;;;;;5021184;28;20199;-68
2022/12/11 11:21:52;;;;;;;64.57;20.47;;;;;;;;;;5020225;28;20253;-68
2022/12/11 11:24:45;;;;;;;54.50;20.73;;;;;;;;;;5028265;28;20198;-68
2022/12/11 11:27:28;;;;;;;58.97;20.07;;;;;;;;;;5024072;28;20261;-67
2022/12/11 11:29:56;;;;;;;45.20;16.80;;;;;;;;;;5029061;28;20747;-68
2022/12/11 11:32:29;;;;;;;60.83;23.03;;;;;;;;;;5021679;28;20642;-68
2022/12/11 11:35:24;;;;;;;60.87;20.30;;;;;;;;;;5011398;28;20556;-68
2022/12/11 11:38:17;;;;;;;57.93;21.23;;;;;;;;;;5012974;28;20294;-68
2022/12/11 11:40:54;;;;;;;50.03;19.20;;;;;;;;;;5014053;28;20226;-68
2022/12/11 11:43:41;;;;;;;45.07;18.07;;;;;;;;;;5015971;28;20710;-68
2022/12/11 11:46:17;;;;;;;42.77;17.33;;;;;;;;;;5020932;28;20195;-68
2022/12/11 11:48:55;;;;;;;42.60;18.63;;;;;;;;;;5014465;28;20494;-68
2022/12/11 11:51:34;;;;;;;43.70;16.93;;;;;;;;;;5012144;28;20210;-68
2022/12/11 11:54:07;;;;;;;39.90;17.00;;;;;;;;;;5015705;28;20201;-68
2022/12/11 11:56:36;;;;;;;34.70;15.50;;;;;;;;;;5021072;28;20186;-68
2022/12/11 11:59:15;;;;;;;37.73;16.27;;;;;;;;;;5027423;28;20630;-68
2022/12/11 12:01:42;;;;;;;37.47;16.73;;;;;;;;;;5013658;28;20218;-69
2022/12/11 12:04:08;;;;;;;32.27;15.37;;;;;;;;;;5027101;28;20186;-68
2022/12/11 12:06:59;;;;;;;33.50;16.50;;;;;;;;;;5019551;28;20191;-68
2022/12/11 12:09:44;;;;;;;33.07;15.57;;;;;;;;;;5028744;28;20216;-68
2022/12/11 12:12:16;;;;;;;33.97;16.47;;;;;;;;;;5029782;28;20603;-68
2022/12/11 12:15:19;;;;;;;34.43;16.13;;;;;;;;;;5021597;28;20190;-68
2022/12/11 12:17:57;;;;;;;29.13;14.67;;;;;;;;;;5016564;28;20638;-68
2022/12/11 12:20:44;;;;;;;30.60;15.67;;;;;;;;;;5013374;28;20291;-68
2022/12/11 12:23:41;;;;;;;33.47;15.20;;;;;;;;;;5024109;28;20193;-69
2022/12/11 12:26:26;;;;;;;31.37;15.20;;;;;;;;;;5020951;28;20190;-69
2022/12/11 12:29:01;;;;;;;31.27;14.27;;;;;;;;;;5032532;28;20197;-68
2022/12/11 12:31:29;;;;;;;33.03;16.00;;;;;;;;;;5017881;28;20687;-68
2022/12/11 12:34:38;;;;;;;31.87;15.73;;;;;;;;;;5013334;28;20222;-68
2022/12/11 12:37:19;;;;;;;30.53;14.90;;;;;;;;;;5012250;28;20225;-68
2022/12/11 12:40:12;;;;;;;35.13;16.73;;;;;;;;;;5020644;28;20191;-69
2022/12/11 12:43:02;;;;;;;32.67;16.43;;;;;;;;;;5017488;28;20244;-68
2022/12/11 12:45:35;;;;;;;36.03;16.27;;;;;;;;;;5013382;28;20183;-68
2022/12/11 12:48:01;;;;;;;35.30;15.77;;;;;;;;;;5012630;28;20233;-69
2022/12/11 12:50:36;;;;;;;36.93;16.63;;;;;;;;;;5015413;28;20210;-68
2022/12/11 12:53:05;;;;;;;42.10;16.70;;;;;;;;;;5015951;28;20269;-69
2022/12/11 12:55:31;;;;;;;33.63;14.90;;;;;;;;;;5015692;28;20207;-70
2022/12/11 12:58:03;;;;;;;34.73;16.07;;;;;;;;;;5013118;28;20174;-68
2022/12/11 13:00:31;;;;;;;34.57;15.60;;;;;;;;;;5009467;28;20226;-68
2022/12/11 13:02:59;;;;;;;34.23;15.87;;;;;;;;;;5014449;28;20288;-69
2022/12/11 13:05:33;;;;;;;34.63;17.50;;;;;;;;;;5013806;28;20216;-68
2022/12/11 13:08:02;;;;;;;34.13;16.57;;;;;;;;;;5013019;28;20199;-69
2022/12/11 13:10:36;;;;;;;34.17;16.43;;;;;;;;;;5012444;28;20584;-69
2022/12/11 13:13:04;;;;;;;37.67;15.83;;;;;;;;;;5012704;28;20187;-68
2022/12/11 13:15:42;;;;;;;37.70;17.10;;;;;;;;;;5017404;28;20194;-68
2022/12/11 13:18:49;;;;;;;35.23;15.13;;;;;;;;;;5010814;28;20703;-68
2022/12/11 13:21:31;;;;;;;32.97;15.63;;;;;;;;;;5019151;28;20799;-68
2022/12/11 13:24:11;;;;;;;33.17;16.13;;;;;;;;;;5014676;28;20178;-68
2022/12/11 13:26:38;;;;;;;36.40;16.20;;;;;;;;;;5023093;28;20297;-68
2022/12/11 13:29:03;;;;;;;32.13;15.67;;;;;;;;;;5019252;28;20558;-68
2022/12/11 13:31:32;;;;;;;35.77;14.80;;;;;;;;;;5012958;28;20221;-69
2022/12/11 13:34:26;;;;;;;30.67;14.00;;;;;;;;;;5012883;28;20470;-68
2022/12/11 13:36:53;;;;;;;31.43;15.83;;;;;;;;;;5012509;28;20584;-68
2022/12/11 13:39:31;;;;;;;30.07;14.57;;;;;;;;;;5010547;28;20533;-68
2022/12/11 13:42:06;;;;;;;30.33;14.83;;;;;;;;;;5011604;28;20646;-68
2022/12/11 13:44:40;;;;;;;31.10;14.27;;;;;;;;;;5012373;28;20219;-68
2022/12/11 13:47:12;;;;;;;33.37;15.00;;;;;;;;;;5009921;28;20200;-68
2022/12/11 13:49:41;;;;;;;32.70;14.43;;;;;;;;;;5018309;28;20178;-68
2022/12/11 13:52:22;;;;;;;29.70;14.30;;;;;;;;;;5011870;28;20203;-68
2022/12/11 13:54:50;;;;;;;26.77;13.27;;;;;;;;;;5009477;28;20562;-68
2022/12/11 13:57:21;;;;;;;28.03;13.80;;;;;;;;;;5010406;28;20285;-68
2022/12/11 13:59:51;;;;;;;27.47;13.40;;;;;;;;;;5016615;28;20302;-68
2022/12/11 14:02:20;;;;;;;25.13;13.13;;;;;;;;;;5014067;28;20314;-68
2022/12/11 14:04:47;;;;;;;25.23;12.87;;;;;;;;;;5018522;28;20209;-68
2022/12/11 14:07:19;;;;;;;29.03;14.60;;;;;;;;;;5011003;28;20202;-68
2022/12/11 14:09:45;;;;;;;25.40;12.90;;;;;;;;;;5016451;28;20175;-67
2022/12/11 14:12:17;;;;;;;24.80;12.93;;;;;;;;;;5018368;28;20200;-68
2022/12/11 14:14:48;;;;;;;26.40;13.93;;;;;;;;;;5012432;28;20638;-68
2022/12/11 14:17:16;;;;;;;28.83;14.57;;;;;;;;;;5014680;28;20186;-68
2022/12/11 14:19:48;;;;;;;26.30;13.97;;;;;;;;;;5010652;28;20498;-68
2022/12/11 14:22:20;;;;;;;24.47;13.43;;;;;;;;;;5008597;28;20186;-68
2022/12/11 14:24:52;;;;;;;28.37;14.43;;;;;;;;;;5028969;28;20656;-68
2022/12/11 14:27:18;;;;;;;30.33;13.70;;;;;;;;;;5011443;28;20231;-68
2022/12/11 14:29:44;;;;;;;27.80;14.27;;;;;;;;;;5016575;28;20677;-68
2022/12/11 14:32:19;;;;;;;28.80;13.80;;;;;;;;;;5021313;28;20259;-68
2022/12/11 14:34:45;;;;;;;28.20;14.30;;;;;;;;;;5010404;28;20231;-68
2022/12/11 14:37:14;;;;;;;31.10;13.43;;;;;;;;;;5030717;28;20205;-68
2022/12/11 14:39:46;;;;;;;27.23;14.50;;;;;;;;;;5017478;28;20638;-68
2022/12/11 14:42:16;;;;;;;27.43;14.13;;;;;;;;;;5018516;28;20189;-68
2022/12/11 14:44:58;;;;;;;30.83;15.53;;;;;;;;;;5016214;28;20252;-68
2022/12/11 14:47:31;;;;;;;26.63;14.17;;;;;;;;;;5017807;28;20531;-68